EW5819 Weather Reports


Display with metric or nautical units.
time (UTC)temp
F
wind
direction
speed
MPH
gust
MPH
rain 1hr
in
rain 24hr
in
rain mn
in
humidity
%
barometer
mb
20190423063103 50 77 0.0 0.0 0.00 0.00 0.00 95 1018.5
20190423061533 51 77 0.0 0.0 0.00 0.00 0.00 95 1018.6
20190423060215 51 77 0.0 0.0 0.00 0.00 0.00 95 1018.6
20190423054611 51 77 0.0 0.0 0.00 0.00 0.00 94 1018.6
20190423051638 52 77 0.0 0.0 0.00 0.00 0.00 94 1018.7
20190423050211 52 77 0.0 0.0 0.00 0.00 0.00 93 1018.7
20190423044535 53 77 0.0 0.0 0.00 0.00 0.00 93 1018.9
20190423043126 53 77 0.0 0.0 0.00 0.00 0.00 92 1018.9
20190423041521 54 77 0.0 0.0 0.00 0.00 0.00 91 1019.0
20190423040222 54 77 0.0 0.0 0.00 0.00 0.00 91 1019.0
20190423034548 55 77 0.0 0.0 0.00 0.00 0.00 90 1019.0
20190423033015 55 77 0.0 0.0 0.00 0.00 0.00 90 1019.0
20190423031612 56 77 0.0 0.0 0.00 0.00 0.00 88 1018.9
20190423030015 56 77 0.0 0.0 0.00 0.00 0.00 87 1018.8
20190423024625 57 77 0.0 0.0 0.00 0.00 0.00 85 1018.7
20190423023046 58 77 0.0 0.0 0.00 0.00 0.00 85 1018.6
20190423020113 60 77 0.0 0.0 0.00 0.00 0.00 79 1018.6
20190423014532 61 77 0.0 0.0 0.00 0.00 0.00 76 1018.4
20190423013112 62 77 0.0 0.0 0.00 0.00 0.00 73 1018.4
20190423011539 63 77 0.0 0.0 0.00 0.00 0.00 68 1018.4
20190423010135 65 77 0.0 0.0 0.00 0.00 0.00 66 1018.3
20190423004615 66 77 0.0 0.0 0.00 0.00 0.00 62 1018.3
20190423003020 68 77 0.0 0.0 0.00 0.00 0.00 57 1018.3
20190423001613 70 77 0.0 0.0 0.00 0.00 0.00 53 1018.2
20190423000028 72 77 0.0 0.0 0.00 0.00 0.00 45 1018.3
20190422234510 75 77 0.0 0.0 0.00 0.00 0.00 40 1018.2
20190422233114 76 77 0.0 0.0 0.00 0.00 0.00 38 1018.2
20190422231544 76 77 0.0 1.0 0.00 0.00 0.00 36 1018.3
20190422230205 76 11 0.0 1.0 0.00 0.00 0.00 37 1018.4
20190422224553 76 349 0.0 1.0 0.00 0.00 0.00 38 1018.5
20190422223003 77 9 0.0 2.0 0.00 0.00 0.00 36 1018.6
20190422221617 77 4 0.0 2.0 0.00 0.00 0.00 36 1018.6
20190422220012 77 320 0.0 4.0 0.00 0.00 0.00 35 1018.7
20190422214617 78 335 0.0 2.0 0.00 0.00 0.00 33 1018.7
20190422213054 79 20 1.0 3.0 0.00 0.00 0.00 31 1018.8
20190422211701 79 22 1.0 6.0 0.00 0.00 0.00 34 1018.9
20190422210102 79 284 0.0 3.0 0.00 0.00 0.00 37 1019.0
20190422204508 78 137 0.0 4.0 0.00 0.00 0.00 33 1019.0
20190422203143 79 2 1.0 5.0 0.00 0.00 0.00 34 1019.2
20190422201520 78 294 3.0 7.0 0.00 0.00 0.00 33 1019.3
20190422200141 78 268 0.0 5.0 0.00 0.00 0.00 35 1019.4
20190422194548 78 68 1.0 4.0 0.00 0.00 0.00 34 1019.5
20190422191612 78 77 1.0 5.0 0.00 0.00 0.00 32 1019.9
20190422190031 77 253 1.0 6.0 0.00 0.00 0.00 38 1020.1
20190422184711 76 168 0.0 4.0 0.00 0.00 0.00 39 1020.3
20190422183103 76 28 1.0 6.0 0.00 0.00 0.00 38 1020.5
20190422181502 76 103 0.0 3.0 0.00 0.00 0.00 40 1020.7
20190422180103 75 44 1.0 6.0 0.00 0.00 0.00 41 1020.8
20190422174532 74 150 0.0 4.0 0.00 0.00 0.00 41 1021.0
20190422173105 73 90 2.0 6.0 0.00 0.00 0.00 43 1021.3
20190422171516 73 146 2.0 4.0 0.00 0.00 0.00 39 1021.5
20190422170135 72 354 3.0 8.0 0.00 0.00 0.00 43 1021.7
20190422164542 71 10 0.0 6.0 0.00 0.00 0.00 45 1021.8
20190422163112 71 46 1.0 3.0 0.00 0.00 0.00 44 1022.0
20190422161546 70 51 1.0 4.0 0.00 0.00 0.00 51 1022.0
20190422160220 68 302 2.0 5.0 0.00 0.00 0.00 51 1022.1
20190422154617 67 2 0.0 5.0 0.00 0.00 0.00 57 1022.4
20190422153205 66 76 0.0 4.0 0.00 0.00 0.00 60 1022.5
20190422151544 65 72 0.0 4.0 0.00 0.00 0.00 61 1022.5
20190422150144 64 82 1.0 3.0 0.00 0.00 0.00 64 1022.6
20190422144554 62 71 0.0 3.0 0.00 0.00 0.00 63 1022.6
20190422143214 60 315 1.0 4.0 0.00 0.00 0.00 67 1022.5
20190422141558 59 18 1.0 3.0 0.00 0.00 0.00 67 1022.5
20190422140150 58 141 0.0 4.0 0.00 0.00 0.00 70 1022.6
20190422134541 56 31 0.0 3.0 0.00 0.00 0.00 73 1022.7
20190422133224 55 13 0.0 2.0 0.00 0.00 0.00 75 1022.7
20190422131623 54 23 0.0 2.0 0.00 0.00 0.00 80 1022.6
20190422130000 52 27 0.0 1.0 0.00 0.00 0.00 86 1022.5
20190422124608 50 25 0.0 1.0 0.00 0.00 0.00 88 1022.5
20190422123007 49 24 0.0 1.0 0.00 0.00 0.00 90 1022.5
20190422121557 47 25 0.0 2.0 0.00 0.00 0.00 92 1022.4
20190422120120 47 92 0.0 2.0 0.00 0.00 0.00 93 1022.2
20190422114729 46 27 0.0 0.0 0.00 0.00 0.00 97 1022.0
20190422113039 43 27 0.0 0.0 0.00 0.00 0.00 97 1021.7
20190422111642 42 27 0.0 0.0 0.00 0.00 0.00 97 1021.4
20190422110037 41 27 0.0 0.0 0.00 0.00 0.00 97 1021.2
20190422104740 41 27 0.0 0.0 0.00 0.00 0.00 97 1021.0
20190422103041 41 8 0.0 0.0 0.00 0.00 0.00 97 1020.9
20190422101702 41 7 0.0 0.0 0.00 0.00 0.00 97 1020.8
20190422100110 42 7 0.0 0.0 0.00 0.00 0.00 97 1020.7
20190422094749 42 8 0.0 0.0 0.00 0.00 0.00 96 1020.5
20190422093040 42 7 0.0 0.0 0.00 0.00 0.00 96 1020.5
20190422090132 42 7 0.0 0.0 0.00 0.00 0.00 96 1020.4
20190422084530 43 7 0.0 0.0 0.00 0.00 0.00 96 1020.5
20190422083146 43 7 0.0 0.0 0.00 0.00 0.00 96 1020.4
20190422081605 43 7 0.0 0.0 0.00 0.00 0.00 96 1020.3
20190422080124 43 8 0.0 0.0 0.00 0.00 0.00 96 1020.2
20190422074539 44 8 0.0 0.0 0.00 0.00 0.00 96 1020.1
20190422073154 44 358 0.0 0.0 0.00 0.00 0.00 96 1020.1
20190422071548 44 358 0.0 0.0 0.00 0.00 0.00 96 1020.1
20190422070200 44 358 0.0 0.0 0.00 0.00 0.00 96 1020.1
20190422064603 44 358 0.0 0.0 0.00 0.00 0.00 95 1020.1